Time;durP1;ratioP1;P1;durP2;ratioP2;P2;SDS_P1;SDS_P2;PMS_P1;PMS_P2;Temp;Humidity;BMP_temperature;BMP_pressure;BME280_temperature;BME280_humidity;BME280_pressure;Samples;Min_cycle;Max_cycle;Signal;HPM_P1;HPM_P2
2023/11/30 00:09:15;;;;;;;13.93;7.90;;;2.70;99.90;;;;;;20502906;28;20054;-83
2023/11/30 00:19:15;;;;;;;12.18;7.40;;;2.70;99.90;;;;;;20578973;28;20058;-81
2023/11/30 00:29:16;;;;;;;13.40;7.03;;;2.70;99.90;;;;;;20565085;28;20058;-84
2023/11/30 00:39:17;;;;;;;14.80;7.90;;;2.60;99.90;;;;;;20491519;28;20534;-84
2023/11/30 00:49:18;;;;;;;17.40;7.90;;;2.60;99.90;;;;;;20469002;28;20068;-84
2023/11/30 00:59:18;;;;;;;11.93;7.72;;;2.50;99.90;;;;;;20509497;28;20062;-85
2023/11/30 01:09:19;;;;;;;13.00;7.72;;;2.40;99.90;;;;;;20471576;28;20093;-86
2023/11/30 01:19:32;;;;;;;13.02;7.07;;;2.40;99.90;;;;;;20443262;28;20307;-84
2023/11/30 01:29:36;;;;;;;14.85;7.90;;;2.50;99.90;;;;;;20428202;28;20049;-84
2023/11/30 01:39:42;;;;;;;14.57;7.68;;;2.50;99.90;;;;;;20443907;28;20049;-85
2023/11/30 01:49:43;;;;;;;14.10;9.03;;;2.50;99.90;;;;;;20421566;28;20051;-85
2023/11/30 01:59:45;;;;;;;15.07;9.23;;;2.50;99.90;;;;;;20444677;28;20259;-84
2023/11/30 02:09:46;;;;;;;14.07;9.05;;;2.50;99.90;;;;;;20419279;28;20134;-84
2023/11/30 02:20:10;;;;;;;11.88;7.50;;;2.50;99.90;;;;;;20493635;28;20053;-83
2023/11/30 02:30:12;;;;;;;13.32;8.63;;;2.50;99.90;;;;;;20453123;28;20043;-84
2023/11/30 02:40:13;;;;;;;14.30;8.57;;;2.50;99.90;;;;;;20420934;28;20147;-84
2023/11/30 02:50:13;;;;;;;13.43;8.63;;;2.50;99.90;;;;;;20454235;28;20059;-84
2023/11/30 03:00:14;;;;;;;13.45;8.45;;;2.50;99.90;;;;;;20435567;28;20408;-84
2023/11/30 03:10:18;;;;;;;14.68;8.68;;;2.50;99.90;;;;;;20443464;28;20563;-83
2023/11/30 03:20:19;;;;;;;15.05;9.00;;;2.40;99.90;;;;;;20439010;28;20356;-83
2023/11/30 03:30:20;;;;;;;17.08;9.35;;;2.50;99.90;;;;;;20422439;28;20077;-83
2023/11/30 03:40:20;;;;;;;17.83;9.90;;;2.50;99.90;;;;;;20480585;28;20072;-83
2023/11/30 03:50:21;;;;;;;18.17;10.80;;;2.40;99.90;;;;;;20452658;28;20466;-85
2023/11/30 04:00:22;;;;;;;18.48;10.35;;;2.40;99.90;;;;;;20473806;28;20034;-85
2023/11/30 04:10:45;;;;;;;19.95;11.25;;;2.30;99.90;;;;;;20448953;28;20042;-85
2023/11/30 04:20:46;;;;;;;20.75;12.55;;;2.30;99.90;;;;;;20450264;28;20039;-85
2023/11/30 04:30:48;;;;;;;21.20;11.70;;;2.30;99.90;;;;;;20452439;28;20070;-84
2023/11/30 04:40:53;;;;;;;20.73;12.25;;;2.30;99.90;;;;;;20486855;28;20451;-85
2023/11/30 04:50:54;;;;;;;17.23;10.05;;;2.30;99.90;;;;;;20447260;28;20067;-84
2023/11/30 05:00:57;;;;;;;17.90;9.97;;;2.10;99.90;;;;;;20443424;28;20113;-84
2023/11/30 05:10:58;;;;;;;15.70;9.63;;;2.00;99.90;;;;;;20447793;28;20462;-85
2023/11/30 05:21:05;;;;;;;16.48;9.23;;;1.90;99.90;;;;;;20435502;28;20054;-85
2023/11/30 05:31:11;;;;;;;15.98;10.05;;;1.90;99.90;;;;;;20418864;28;20134;-85
2023/11/30 05:41:12;;;;;;;16.43;9.60;;;1.70;99.90;;;;;;20412206;28;20159;-84
2023/11/30 05:51:13;;;;;;;17.65;10.57;;;1.70;99.90;;;;;;20460015;28;20047;-86
2023/11/30 06:01:17;;;;;;;19.45;11.75;;;1.70;99.90;;;;;;20481027;28;20034;-84
2023/11/30 06:11:26;;;;;;;18.55;11.75;;;1.80;99.90;;;;;;20456341;28;20065;-84
2023/11/30 06:21:30;;;;;;;18.38;11.32;;;1.90;99.90;;;;;;20436555;28;20043;-84
2023/11/30 06:31:33;;;;;;;22.50;13.52;;;1.80;99.90;;;;;;20464539;28;20039;-84
2023/11/30 06:41:34;;;;;;;20.58;12.82;;;1.90;99.90;;;;;;20453114;28;20059;-84
2023/11/30 06:51:44;;;;;;;25.02;12.75;;;2.00;99.90;;;;;;20452526;28;20051;-81
2023/11/30 07:01:46;;;;;;;22.42;13.65;;;2.00;99.90;;;;;;20484963;28;20035;-84
2023/11/30 07:11:47;;;;;;;24.73;14.55;;;2.00;99.90;;;;;;20526857;28;20066;-86
2023/11/30 07:21:51;;;;;;;24.83;13.77;;;1.90;99.90;;;;;;20487075;28;20043;-86
2023/11/30 07:32:14;;;;;;;29.27;16.10;;;1.80;99.90;;;;;;20461189;28;20047;-88
2023/11/30 07:42:20;;;;;;;30.05;15.13;;;1.80;99.90;;;;;;20433428;28;20051;-87
2023/11/30 07:52:31;;;;;;;30.70;16.50;;;1.90;99.90;;;;;;20430049;28;20114;-85
2023/11/30 08:02:41;;;;;;;34.00;18.50;;;1.80;99.90;;;;;;20441384;28;20042;-89
2023/11/30 08:12:45;;;;;;;28.88;15.98;;;1.70;99.90;;;;;;20423704;28;20036;-86
2023/11/30 08:22:56;;;;;;;25.98;14.43;;;1.70;99.90;;;;;;20448852;28;20118;-86
2023/11/30 08:32:58;;;;;;;20.50;12.35;;;1.60;99.90;;;;;;20422212;28;20122;-86
2023/11/30 08:43:15;;;;;;;22.00;14.20;;;1.50;99.90;;;;;;20403100;28;20503;-87
2023/11/30 08:53:20;;;;;;;25.30;15.90;;;1.30;99.90;;;;;;20385058;28;20043;-85
2023/11/30 09:03:27;;;;;;;33.00;18.27;;;1.20;99.90;;;;;;20402011;28;20034;-87
2023/11/30 09:24:17;;;;;;;35.17;19.70;;;1.50;99.90;;;;;;20387200;28;19939;-86
2023/11/30 09:44:54;;;;;;;34.10;19.75;;;1.70;99.90;;;;;;20414671;28;20050;-85
2023/11/30 09:55:05;;;;;;;36.60;19.13;;;1.60;99.90;;;;;;20503664;28;20026;-87
2023/11/30 10:05:12;;;;;;;36.67;19.58;;;1.50;99.90;;;;;;20410320;28;20039;-87
2023/11/30 10:15:20;;;;;;;54.63;26.00;;;1.40;99.90;;;;;;20414842;28;20039;-86
2023/11/30 10:25:20;;;;;;;34.55;18.70;;;1.50;99.90;;;;;;20400261;28;20112;-86
2023/11/30 10:35:25;;;;;;;41.03;21.17;;;1.60;99.90;;;;;;20430271;28;20040;-87
2023/11/30 10:45:29;;;;;;;36.88;18.73;;;1.60;99.90;;;;;;20342054;28;20047;-87
2023/11/30 10:55:33;;;;;;;39.33;19.40;;;1.70;99.90;;;;;;20358372;29;20084;-87
2023/11/30 11:05:35;;;;;;;48.42;21.38;;;1.70;99.90;;;;;;20400700;29;20051;-87
2023/11/30 11:15:41;;;;;;;40.42;17.20;;;1.90;99.90;;;;;;20394640;29;20042;-86
2023/11/30 11:25:50;;;;;;;45.92;17.60;;;1.90;99.90;;;;;;20366336;29;20107;-86
2023/11/30 11:35:57;;;;;;;48.63;18.65;;;1.90;99.90;;;;;;20375146;29;20545;-88
2023/11/30 11:46:17;;;;;;;41.78;15.73;;;2.10;99.90;;;;;;20405009;28;20054;-84
2023/11/30 11:56:35;;;;;;;34.80;14.53;;;2.10;99.90;;;;;;20417918;28;21116;-84
2023/11/30 12:06:35;;;;;;;42.22;16.77;;;2.20;99.90;;;;;;20418700;28;20044;-84
2023/11/30 12:16:36;;;;;;;38.33;14.55;;;2.20;99.90;;;;;;20402312;28;20039;-84
2023/11/30 12:37:31;;;;;;;34.17;14.02;;;2.50;99.90;;;;;;20381847;28;20055;-83
2023/11/30 12:47:32;;;;;;;30.48;12.52;;;2.40;99.90;;;;;;20444613;28;20035;-84
2023/11/30 12:57:47;;;;;;;35.65;13.88;;;2.40;99.90;;;;;;20459726;28;20125;-86
2023/11/30 13:07:54;;;;;;;34.03;14.48;;;2.40;99.90;;;;;;20431031;28;20047;-86
2023/11/30 13:17:55;;;;;;;33.73;13.33;;;2.50;99.90;;;;;;20443272;28;20035;-86
2023/11/30 13:27:55;;;;;;;35.33;13.68;;;2.40;99.90;;;;;;20446427;28;20042;-87
2023/11/30 13:37:59;;;;;;;39.45;14.30;;;2.30;99.90;;;;;;20465448;28;20035;-86
2023/11/30 13:48:00;;;;;;;44.15;15.18;;;2.30;99.90;;;;;;20463765;28;20225;-83
2023/11/30 13:58:01;;;;;;;38.35;14.02;;;2.30;99.90;;;;;;20452404;28;20067;-86
2023/11/30 14:08:02;;;;;;;39.60;15.18;;;2.30;99.90;;;;;;20463537;28;20054;-86
2023/11/30 14:18:08;;;;;;;29.80;13.18;;;2.40;99.90;;;;;;20457831;28;20036;-85
2023/11/30 14:28:13;;;;;;;32.70;12.38;;;2.30;99.90;;;;;;20456872;28;20073;-84
2023/11/30 14:38:14;;;;;;;35.42;13.73;;;2.10;99.90;;;;;;20456908;28;20501;-87
2023/11/30 14:48:16;;;;;;;38.05;12.63;;;2.20;99.90;;;;;;20438607;28;20066;-85
2023/11/30 14:58:17;;;;;;;35.00;12.77;;;2.10;99.90;;;;;;20486997;28;20086;-87
2023/11/30 15:08:19;;;;;;;34.00;12.77;;;2.10;99.90;;;;;;20479706;28;20043;-86
2023/11/30 15:18:20;;;;;;;40.03;15.18;;;2.20;99.90;;;;;;20440954;28;20036;-83
2023/11/30 15:28:21;;;;;;;42.47;14.68;;;2.10;99.90;;;;;;20472730;28;20051;-85
2023/11/30 15:38:29;;;;;;;27.38;10.85;;;2.10;99.90;;;;;;20446737;28;20047;-84
2023/11/30 15:48:34;;;;;;;24.42;9.15;;;2.00;99.90;;;;;;20468578;28;20035;-84
2023/11/30 15:58:39;;;;;;;34.92;11.02;;;1.80;99.90;;;;;;20434928;28;20036;-83
2023/11/30 16:08:50;;;;;;;28.10;10.67;;;1.70;99.90;;;;;;20479512;28;20465;-83
2023/11/30 16:18:50;;;;;;;25.42;9.98;;;1.50;99.90;;;;;;20536739;28;20121;-83
2023/11/30 16:28:53;;;;;;;30.67;12.00;;;1.50;99.90;;;;;;20534359;28;20055;-86
2023/11/30 16:39:05;;;;;;;33.00;11.43;;;1.50;99.90;;;;;;20484358;28;20046;-85
2023/11/30 16:49:12;;;;;;;41.25;12.77;;;1.50;99.90;;;;;;20433577;28;20142;-84
2023/11/30 16:59:24;;;;;;;34.33;12.80;;;1.60;99.90;;;;;;20478917;28;20059;-84
2023/11/30 17:09:27;;;;;;;32.25;12.57;;;1.50;99.90;;;;;;20440312;28;20046;-85
2023/11/30 17:19:31;;;;;;;31.77;12.73;;;1.60;99.90;;;;;;20466209;28;20163;-86
2023/11/30 17:29:37;;;;;;;37.00;15.25;;;1.50;99.90;;;;;;20437514;28;20043;-85
2023/11/30 17:39:54;;;;;;;33.57;14.60;;;1.50;99.90;;;;;;20459432;28;20130;-85
2023/11/30 17:50:00;;;;;;;;;;;1.40;99.90;;;;;;20464906;28;20121;-87
2023/11/30 18:00:04;;;;;;;33.65;14.65;;;1.40;99.90;;;;;;20470226;28;19950;-85
2023/11/30 18:10:05;;;;;;;42.97;17.48;;;1.40;99.90;;;;;;20473041;28;20031;-85
2023/11/30 18:20:22;;;;;;;34.28;14.00;;;1.60;99.90;;;;;;20436052;28;20038;-85
2023/11/30 18:30:44;;;;;;;35.17;13.85;;;1.40;99.90;;;;;;20457267;28;20037;-86
2023/11/30 18:40:45;;;;;;;29.60;12.23;;;1.40;99.90;;;;;;20484881;28;20473;-85
2023/11/30 18:50:54;;;;;;;40.85;14.63;;;1.30;99.90;;;;;;20497412;28;20433;-86
2023/11/30 19:00:59;;;;;;;27.08;11.73;;;1.40;99.90;;;;;;20566181;28;20027;-85
2023/11/30 19:11:54;;;;;;;36.15;14.10;;;1.20;99.90;;;;;;20591428;28;20042;-86
2023/11/30 19:22:25;;;;;;;31.48;13.95;;;1.20;99.90;;;;;;20529050;28;20023;-83
2023/11/30 19:32:30;;;;;;;31.88;13.80;;;1.20;99.90;;;;;;20524616;28;20066;-78
2023/11/30 19:42:40;;;;;;;32.83;15.83;;;1.30;99.90;;;;;;20452835;28;20122;-87
2023/11/30 19:53:04;;;;;;;41.30;15.88;;;1.10;99.90;;;;;;20478125;28;20818;-89
2023/11/30 20:03:16;;;;;;;33.83;15.15;;;1.20;99.90;;;;;;20427076;28;20468;-84
2023/11/30 20:13:17;;;;;;;34.72;14.00;;;1.30;99.90;;;;;;20467037;28;20107;-85
2023/11/30 20:23:21;;;;;;;31.67;13.13;;;1.30;99.90;;;;;;20421171;28;20090;-85
2023/11/30 20:33:21;;;;;;;34.67;13.38;;;1.20;99.90;;;;;;20377398;28;20044;-83
2023/11/30 20:43:22;;;;;;;44.88;14.63;;;1.10;99.90;;;;;;20443387;28;20569;-84
2023/11/30 20:53:29;;;;;;;42.00;16.45;;;1.10;99.90;;;;;;20469647;28;20039;-84
2023/11/30 21:03:38;;;;;;;32.45;12.93;;;1.20;99.90;;;;;;20443152;28;20039;-82
2023/11/30 21:13:42;;;;;;;31.35;13.73;;;1.00;99.90;;;;;;20482568;28;20504;-82
2023/11/30 21:23:49;;;;;;;31.25;12.52;;;1.00;99.90;;;;;;20511351;28;20037;-83
2023/11/30 21:33:50;;;;;;;32.88;13.25;;;0.90;99.90;;;;;;20510607;28;20042;-82
2023/11/30 21:43:53;;;;;;;35.47;13.63;;;1.00;99.90;;;;;;20507030;28;20070;-81
2023/11/30 21:54:02;;;;;;;33.25;13.13;;;0.90;99.90;;;;;;20509207;28;20082;-83
2023/11/30 22:04:06;;;;;;;36.53;13.97;;;0.90;99.90;;;;;;20474657;28;20057;-82
2023/11/30 22:14:07;;;;;;;36.28;13.95;;;0.90;99.90;;;;;;20496625;28;20054;-83
2023/11/30 22:24:10;;;;;;;36.58;14.43;;;0.90;99.90;;;;;;20466711;28;20035;-83
2023/11/30 22:34:11;;;;;;;35.17;14.45;;;0.80;99.90;;;;;;20492415;28;20057;-83
2023/11/30 22:44:18;;;;;;;33.60;13.43;;;0.80;99.90;;;;;;20527855;28;20082;-82
2023/11/30 22:54:25;;;;;;;39.10;15.23;;;0.70;99.90;;;;;;20537252;28;20043;-82
2023/11/30 23:04:27;;;;;;;;;;;0.60;99.90;;;;;;20458521;28;20066;-83
2023/11/30 23:14:31;;;;;;;40.55;15.13;;;0.70;99.90;;;;;;20480335;28;19925;-83
2023/11/30 23:24:32;;;;;;;38.67;15.20;;;0.60;99.90;;;;;;20468164;28;20078;-84
2023/11/30 23:34:43;;;;;;;40.30;15.20;;;0.50;99.90;;;;;;20473517;28;20039;-86
2023/11/30 23:45:03;;;;;;;37.65;13.82;;;0.50;99.90;;;;;;20495494;28;20063;-85
2023/11/30 23:55:12;;;;;;;38.00;14.20;;;0.40;99.90;;;;;;20467839;28;20066;-82
